RJOM

Details ICAO RJOM (MYJ)
Name MATSUYAMA
Region Japan
Timezone Asia/Tokyo (UTC+9.0)
Plans Departing 26
Arriving 36
Stats Elevation 25 ft / 8 m (AMSL)
Location 33.827257° 132.699631°
Runways 1
Magnetic Variation 7.514° W
Sunrise 2017-12-16 22:09:13 UTC / 2017-12-17 07:09:13 Local
Sunset 2017-12-17 08:03:49 UTC / 2017-12-17 17:03:49 Local
Advertisement - Login to hide

Runways

ID Width Length Bearing (true) Bearing (mag) Surface Threshold Offset Overrun Length
14 150 ft / 46 m 8,203 ft / 2,500 m 130.67° 138.18° Asphalt 0 ft / 0 m 206 ft / 63 m
32 150 ft / 46 m 8,203 ft / 2,500 m 310.68° 318.19° Asphalt 0 ft / 0 m 195 ft / 59 m

Map

Weather


0- 5 10 15 20 25 30 35+ Temperature / ° C

Clouds and Precipitation
Forecast for 2017-12-17 06:00 UTC. Updated an hour ago

Ground ~20,000 ft ~40,000 ft Winds

METAR

RJOM 170400Z 30011KT 9999 FEW030 SCT040 05/M08 Q1025

TAF

TAF RJOM 162306Z 1700/1806 30013KT 9999 FEW025 SCT040

Frequencies

Recorded 126.65 MHz ATIS
Tower 118.35 MHz TWR
Tower 126.20 MHz TWR
Approach 128.00 MHz IWAKUNI APP
Warning: Do not use this data for real-world aviation or navigation. No guarantee of current accuracy is given.